• Join FlightAware (Why Join?)
  • Login
  • US Flag 
07:18AM EDT


 

Airport Tracker/Info


-or-


 

Live Flight TrackerFlight Track Log ✈ SWA337 ✈ 27-Oct-2013 ✈ KELP - KPHX

Flight Track Log - Related Links

Times and Time Zones

All times are in EDT time to prevent confusion due to time zone crossing. See the SWA337 flight status page for this flight to view local times or setup timezone preferences in your user account.

Time Position Orientation Groundspeed Altitude Reporting Facility
EDT Latitude Longitude Course Direction KTS MPH feet Rate Location/Type
06:53PM 31.8050 -106.3947 240° Southwest 165 190 4,600  Level Albuquerque Center
06:53PM 31.8017 -106.4014 240° Southwest 170 196 5,100 2,280 Climbing Albuquerque Center
06:54PM 31.7756 -106.4583 242° Southwest 216 249 7,200 2,760 Climbing Albuquerque Center
06:55PM 31.7772 -106.5317 272° West 245 282 10,800 2,640 Climbing Albuquerque Center
06:56PM 31.8339 -106.6361 303° West 333 383 12,700 2,520 Climbing Albuquerque Center
06:57PM 31.8558 -106.7472 283° West 346 398 16,000 2,700 Climbing Albuquerque Center
06:58PM 31.8756 -106.8631 281° West 359 413 18,300 2,400 Climbing Albuquerque Center
06:59PM 31.8961 -106.9819 282° West 368 423 21,000 2,160 Climbing Albuquerque Center
07:00PM 31.9164 -107.1022 281° West 371 427 22,800 1,560 Climbing Albuquerque Center
07:01PM 31.9397 -107.2303 282° West 385 443 24,200 1,740 Climbing Albuquerque Center
07:02PM 31.9608 -107.3619 281° West 402 463 26,400 1,980 Climbing Albuquerque Center
07:03PM 31.9828 -107.4908 281° West 402 463 28,300 1,980 Climbing Albuquerque Center
07:04PM 32.0033 -107.6167 281° West 395 455 30,500 2,040 Climbing Albuquerque Center
07:05PM 32.0239 -107.7381 281° West 383 441 32,600 1,680 Climbing Albuquerque Center
07:06PM 32.0464 -107.8767 281° West 364 419 34,000 660 Climbing Albuquerque Center
07:07PM 32.0656 -107.9917 281° West 359 413 34,000  Level Albuquerque Center
07:08PM 32.0853 -108.1067 281° West 358 412 34,000  Level Albuquerque Center
07:09PM 32.1042 -108.2231 281° West 360 414 34,000  Level Albuquerque Center
07:11PM 32.1222 -108.3425 280° West 367 422 34,000  Level Albuquerque Center
07:12PM 32.1442 -108.4756 281° West 369 425 34,000  Level Albuquerque Center
07:13PM 32.1636 -108.5967 281° West 373 429 34,000  Level Albuquerque Center
07:14PM 32.1833 -108.7175 281° West 373 429 34,000  Level Albuquerque Center
07:15PM 32.2025 -108.8381 281° West 375 432 34,000  Level Albuquerque Center
07:16PM 32.2208 -108.9567 280° West 369 425 34,000  Level Albuquerque Center
07:17PM 32.2392 -109.0744 280° West 366 421 34,000  Level Albuquerque Center
07:18PM 32.2572 -109.1922 280° West 365 420 34,000  Level Albuquerque Center
07:19PM 32.2789 -109.3100 282° West 365 420 34,000  Level Albuquerque Center
07:20PM 32.3072 -109.4256 286° West 366 421 34,000  Level Albuquerque Center
07:21PM 32.3414 -109.5633 286° West 364 419 34,000  Level Albuquerque Center
07:22PM 32.3678 -109.6775 285° West 362 417 34,000  Level Albuquerque Center
07:23PM 32.3981 -109.7964 287° West 372 428 34,000  Level Albuquerque Center
07:24PM 32.4272 -109.9128 287° West 371 427 34,000  Level Albuquerque Center
07:25PM 32.4553 -110.0289 286° West 368 423 34,000  Level Albuquerque Center
07:26PM 32.4819 -110.1447 285° West 365 420 34,000 -1,020 Level Albuquerque Center
07:27PM 32.5097 -110.2606 286° West 366 421 32,000 -2,760 Descending Albuquerque Center
07:28PM 32.5406 -110.3894 286° West 373 429 28,300 -3,120 Descending Albuquerque Center
07:29PM 32.5669 -110.5064 285° West 371 427 25,700 -2,100 Descending Albuquerque Center
07:30PM 32.5983 -110.6156 289° West 356 410 24,000 -840 Descending Albuquerque Center
07:31PM 32.6542 -110.7125 304° West 355 409 24,000  Level Albuquerque Center
07:32PM 32.7094 -110.8158 302° West 366 421 24,000  Level Albuquerque Center
07:33PM 32.7742 -110.9336 303° West 357 411 24,000 -1,020 Level Albuquerque Center
07:34PM 32.8211 -111.0269 301° West 336 387 22,000 -1,920 Descending Albuquerque Center
07:35PM 32.8556 -111.1208 294° West 317 365 20,100 -1,860 Descending Albuquerque Center
07:36PM 32.8678 -111.2189 278° West 301 346 18,200 -1,560 Descending Albuquerque Center
07:37PM 32.9244 -111.2908 313° West 297 342 17,000 -1,500 Descending Albuquerque Center
07:38PM 32.9814 -111.3722 310° West 317 365 15,200 -1,800 Descending Albuquerque Center
07:39PM 33.0322 -111.4600 305° West 320 368 13,300 -1,860 Descending Albuquerque Center
07:40PM 33.0764 -111.5481 301° West 311 358 11,400 -1,860 Descending Albuquerque Center
07:41PM 33.1658 -111.6086 330° Northwest 311 358 9,600 -1,200 Descending Albuquerque Center
07:42PM 33.2389 -111.6497 335° Northwest 292 336 9,000 -840 Descending Albuquerque Center
07:43PM 33.3039 -111.6883 334° Northwest 264 304 8,000 -1,080 Descending Albuquerque Center
07:44PM 33.3567 -111.7444 318° Northwest 262 302 6,800 -1,620 Descending Albuquerque Center
07:45PM 33.3944 -111.8142 303° West 251 289 4,800 -1,800 Descending Albuquerque Center
07:46PM 33.4283 -111.8772 303° West 232 267 3,200 -1,320 Descending Albuquerque Center
07:47PM 33.4306 -111.9331 273° West 173 199 2,100 -900 Descending Albuquerque Center
07:48PM 33.4314 -111.9792 271° West 143 165 1,400 -720 Descending Albuquerque Center
07:50PM 33.4343 -112.0116 270° West  Level Estimated
07:57PM 33.4343 -112.0116 40° Northeast  Level Estimated